sensor_id;sensor_type;location;lat;lon;timestamp;temperature;humidity
43946;DHT22;29599;51.196;4.428;2022-12-18T00:01:27;-2.40;99.90
43946;DHT22;29599;51.196;4.428;2022-12-18T00:03:54;-2.30;99.90
43946;DHT22;29599;51.196;4.428;2022-12-18T00:06:21;-2.40;99.90
43946;DHT22;29599;51.196;4.428;2022-12-18T00:08:47;-2.30;99.90
43946;DHT22;29599;51.196;4.428;2022-12-18T00:11:16;-2.40;99.90
43946;DHT22;29599;51.196;4.428;2022-12-18T00:13:43;-2.40;99.90
43946;DHT22;29599;51.196;4.428;2022-12-18T00:16:11;-2.40;99.90
43946;DHT22;29599;51.196;4.428;2022-12-18T00:18:36;-2.30;99.90
43946;DHT22;29599;51.196;4.428;2022-12-18T00:21:05;-2.30;99.90
43946;DHT22;29599;51.196;4.428;2022-12-18T00:23:31;-2.40;99.90
43946;DHT22;29599;51.196;4.428;2022-12-18T00:26:02;-2.60;99.90
43946;DHT22;29599;51.196;4.428;2022-12-18T00:28:28;-2.60;99.90
43946;DHT22;29599;51.196;4.428;2022-12-18T00:31:04;-2.70;99.90
43946;DHT22;29599;51.196;4.428;2022-12-18T00:33:30;-2.70;99.90
43946;DHT22;29599;51.196;4.428;2022-12-18T00:36:01;-2.60;99.90
43946;DHT22;29599;51.196;4.428;2022-12-18T00:38:27;-2.70;99.90
43946;DHT22;29599;51.196;4.428;2022-12-18T00:40:52;-2.60;99.90
43946;DHT22;29599;51.196;4.428;2022-12-18T00:43:18;-2.60;99.90
43946;DHT22;29599;51.196;4.428;2022-12-18T00:45:43;-2.60;99.90
43946;DHT22;29599;51.196;4.428;2022-12-18T00:48:09;-2.70;99.90
43946;DHT22;29599;51.196;4.428;2022-12-18T00:50:35;-2.60;99.90
43946;DHT22;29599;51.196;4.428;2022-12-18T00:53:00;-2.70;99.90
43946;DHT22;29599;51.196;4.428;2022-12-18T00:55:26;-2.80;99.90
43946;DHT22;29599;51.196;4.428;2022-12-18T00:57:52;-2.70;99.90
43946;DHT22;29599;51.196;4.428;2022-12-18T01:00:18;-2.80;99.90
43946;DHT22;29599;51.196;4.428;2022-12-18T01:02:43;-2.80;99.90
43946;DHT22;29599;51.196;4.428;2022-12-18T01:05:11;-2.70;99.90
43946;DHT22;29599;51.196;4.428;2022-12-18T01:07:37;-2.70;99.90
43946;DHT22;29599;51.196;4.428;2022-12-18T01:10:04;-2.70;99.90
43946;DHT22;29599;51.196;4.428;2022-12-18T01:12:30;-2.80;99.90
43946;DHT22;29599;51.196;4.428;2022-12-18T01:14:56;-2.80;99.90
43946;DHT22;29599;51.196;4.428;2022-12-18T01:17:22;-2.70;99.90
43946;DHT22;29599;51.196;4.428;2022-12-18T01:19:47;-2.80;99.90
43946;DHT22;29599;51.196;4.428;2022-12-18T01:22:13;-2.90;99.90
43946;DHT22;29599;51.196;4.428;2022-12-18T01:24:38;-2.90;99.90
43946;DHT22;29599;51.196;4.428;2022-12-18T01:27:04;-2.80;99.90
43946;DHT22;29599;51.196;4.428;2022-12-18T01:29:30;-2.90;99.90
43946;DHT22;29599;51.196;4.428;2022-12-18T01:31:56;-2.90;99.90
43946;DHT22;29599;51.196;4.428;2022-12-18T01:34:22;-3.00;99.90
43946;DHT22;29599;51.196;4.428;2022-12-18T01:36:48;-3.00;99.90
43946;DHT22;29599;51.196;4.428;2022-12-18T01:39:15;-3.10;99.90
43946;DHT22;29599;51.196;4.428;2022-12-18T01:41:41;-3.00;99.90
43946;DHT22;29599;51.196;4.428;2022-12-18T01:47:38;-3.10;99.90
43946;DHT22;29599;51.196;4.428;2022-12-18T01:50:09;-3.10;99.90
43946;DHT22;29599;51.196;4.428;2022-12-18T01:52:36;-3.00;99.90
43946;DHT22;29599;51.196;4.428;2022-12-18T01:55:05;-3.10;99.90
43946;DHT22;29599;51.196;4.428;2022-12-18T01:57:32;-3.10;99.90
43946;DHT22;29599;51.196;4.428;2022-12-18T02:00:01;-3.10;99.90
43946;DHT22;29599;51.196;4.428;2022-12-18T02:02:30;-3.10;99.90
43946;DHT22;29599;51.196;4.428;2022-12-18T02:04:56;-3.10;99.90
43946;DHT22;29599;51.196;4.428;2022-12-18T02:18:49;-3.20;99.90
43946;DHT22;29599;51.196;4.428;2022-12-18T02:21:32;-3.20;99.90
43946;DHT22;29599;51.196;4.428;2022-12-18T02:24:30;-3.30;99.90
43946;DHT22;29599;51.196;4.428;2022-12-18T02:27:03;-3.30;99.90
43946;DHT22;29599;51.196;4.428;2022-12-18T02:32:10;-3.20;99.90
43946;DHT22;29599;51.196;4.428;2022-12-18T02:34:39;-3.10;99.90
43946;DHT22;29599;51.196;4.428;2022-12-18T02:37:09;-3.10;99.90
43946;DHT22;29599;51.196;4.428;2022-12-18T02:39:38;-3.10;99.90
43946;DHT22;29599;51.196;4.428;2022-12-18T02:42:05;-3.10;99.90
43946;DHT22;29599;51.196;4.428;2022-12-18T02:44:42;-3.10;99.90
43946;DHT22;29599;51.196;4.428;2022-12-18T02:47:10;-3.20;99.90
43946;DHT22;29599;51.196;4.428;2022-12-18T02:49:53;-3.20;99.90
43946;DHT22;29599;51.196;4.428;2022-12-18T03:00:43;-3.40;99.90
43946;DHT22;29599;51.196;4.428;2022-12-18T03:03:33;-3.50;99.90
43946;DHT22;29599;51.196;4.428;2022-12-18T03:08:52;-3.40;99.90
43946;DHT22;29599;51.196;4.428;2022-12-18T03:11:19;-3.40;99.90
43946;DHT22;29599;51.196;4.428;2022-12-18T03:14:06;-3.40;99.90
43946;DHT22;29599;51.196;4.428;2022-12-18T03:16:34;-3.40;99.90
43946;DHT22;29599;51.196;4.428;2022-12-18T03:19:20;-3.40;99.90
43946;DHT22;29599;51.196;4.428;2022-12-18T03:21:54;-3.30;99.90
43946;DHT22;29599;51.196;4.428;2022-12-18T03:24:22;-3.40;99.90
43946;DHT22;29599;51.196;4.428;2022-12-18T03:26:52;-3.40;99.90
43946;DHT22;29599;51.196;4.428;2022-12-18T03:29:23;-3.40;99.90
43946;DHT22;29599;51.196;4.428;2022-12-18T03:31:54;-3.40;99.90
43946;DHT22;29599;51.196;4.428;2022-12-18T03:34:24;-3.50;99.90
43946;DHT22;29599;51.196;4.428;2022-12-18T03:36:52;-3.40;99.90
43946;DHT22;29599;51.196;4.428;2022-12-18T03:39:19;-3.50;99.90
43946;DHT22;29599;51.196;4.428;2022-12-18T03:42:07;-3.60;99.90
43946;DHT22;29599;51.196;4.428;2022-12-18T03:44:58;-3.60;99.90
43946;DHT22;29599;51.196;4.428;2022-12-18T03:47:45;-3.50;99.90
43946;DHT22;29599;51.196;4.428;2022-12-18T03:50:21;-3.50;99.90
43946;DHT22;29599;51.196;4.428;2022-12-18T03:53:04;-3.50;99.90
43946;DHT22;29599;51.196;4.428;2022-12-18T03:55:33;-3.50;99.90
43946;DHT22;29599;51.196;4.428;2022-12-18T03:58:01;-3.50;99.90
43946;DHT22;29599;51.196;4.428;2022-12-18T04:00:29;-3.50;99.90
43946;DHT22;29599;51.196;4.428;2022-12-18T04:02:56;-3.50;99.90
43946;DHT22;29599;51.196;4.428;2022-12-18T04:05:25;-3.40;99.90
43946;DHT22;29599;51.196;4.428;2022-12-18T04:07:53;-3.40;99.90
43946;DHT22;29599;51.196;4.428;2022-12-18T04:10:20;-3.40;99.90
43946;DHT22;29599;51.196;4.428;2022-12-18T04:12:45;-3.40;99.90
43946;DHT22;29599;51.196;4.428;2022-12-18T04:15:12;-3.30;99.90
43946;DHT22;29599;51.196;4.428;2022-12-18T04:17:40;-3.40;99.90
43946;DHT22;29599;51.196;4.428;2022-12-18T04:20:08;-3.40;99.90
43946;DHT22;29599;51.196;4.428;2022-12-18T04:22:34;-3.30;99.90
43946;DHT22;29599;51.196;4.428;2022-12-18T04:25:00;-3.40;99.90
43946;DHT22;29599;51.196;4.428;2022-12-18T04:27:26;-3.40;99.90
43946;DHT22;29599;51.196;4.428;2022-12-18T04:29:52;-3.40;99.90
43946;DHT22;29599;51.196;4.428;2022-12-18T04:32:17;-3.40;99.90
43946;DHT22;29599;51.196;4.428;2022-12-18T04:34:43;-3.40;99.90
43946;DHT22;29599;51.196;4.428;2022-12-18T04:37:08;-3.40;99.90
43946;DHT22;29599;51.196;4.428;2022-12-18T04:39:34;-3.40;99.90
43946;DHT22;29599;51.196;4.428;2022-12-18T04:42:01;-3.50;99.90
43946;DHT22;29599;51.196;4.428;2022-12-18T04:44:26;-3.60;99.90
43946;DHT22;29599;51.196;4.428;2022-12-18T04:46:52;-3.50;99.90
43946;DHT22;29599;51.196;4.428;2022-12-18T04:49:18;-3.50;99.90
43946;DHT22;29599;51.196;4.428;2022-12-18T04:51:43;-3.50;99.90
43946;DHT22;29599;51.196;4.428;2022-12-18T04:54:09;-3.60;99.90
43946;DHT22;29599;51.196;4.428;2022-12-18T04:56:34;-3.60;99.90
43946;DHT22;29599;51.196;4.428;2022-12-18T04:59:00;-3.60;99.90
43946;DHT22;29599;51.196;4.428;2022-12-18T05:01:25;-3.60;99.90
43946;DHT22;29599;51.196;4.428;2022-12-18T05:03:51;-3.60;99.90
43946;DHT22;29599;51.196;4.428;2022-12-18T05:06:17;-3.70;99.90
43946;DHT22;29599;51.196;4.428;2022-12-18T05:08:43;-3.70;99.90
43946;DHT22;29599;51.196;4.428;2022-12-18T05:11:11;-3.60;99.90
43946;DHT22;29599;51.196;4.428;2022-12-18T05:13:37;-3.60;99.90
43946;DHT22;29599;51.196;4.428;2022-12-18T05:16:04;-3.60;99.90
43946;DHT22;29599;51.196;4.428;2022-12-18T05:18:30;-3.60;99.90
43946;DHT22;29599;51.196;4.428;2022-12-18T05:20:56;-3.60;99.90
43946;DHT22;29599;51.196;4.428;2022-12-18T05:23:23;-3.60;99.90
43946;DHT22;29599;51.196;4.428;2022-12-18T05:25:57;-3.60;99.90
43946;DHT22;29599;51.196;4.428;2022-12-18T05:28:25;-3.70;99.90
43946;DHT22;29599;51.196;4.428;2022-12-18T05:30:53;-3.70;99.90
43946;DHT22;29599;51.196;4.428;2022-12-18T05:33:19;-3.60;99.90
43946;DHT22;29599;51.196;4.428;2022-12-18T05:35:50;-3.60;99.90
43946;DHT22;29599;51.196;4.428;2022-12-18T05:38:17;-3.70;99.90
43946;DHT22;29599;51.196;4.428;2022-12-18T05:40:43;-3.70;99.90
43946;DHT22;29599;51.196;4.428;2022-12-18T05:43:09;-3.60;99.90
43946;DHT22;29599;51.196;4.428;2022-12-18T05:45:37;-3.60;99.90
43946;DHT22;29599;51.196;4.428;2022-12-18T05:48:03;-3.60;99.90
43946;DHT22;29599;51.196;4.428;2022-12-18T05:50:29;-3.60;99.90
43946;DHT22;29599;51.196;4.428;2022-12-18T05:52:55;-3.50;99.90
43946;DHT22;29599;51.196;4.428;2022-12-18T05:55:20;-3.60;99.90
43946;DHT22;29599;51.196;4.428;2022-12-18T05:57:46;-3.60;99.90
43946;DHT22;29599;51.196;4.428;2022-12-18T06:00:12;-3.60;99.90
43946;DHT22;29599;51.196;4.428;2022-12-18T06:02:38;-3.60;99.90
43946;DHT22;29599;51.196;4.428;2022-12-18T06:05:04;-3.70;99.90
43946;DHT22;29599;51.196;4.428;2022-12-18T06:07:29;-3.70;99.90
43946;DHT22;29599;51.196;4.428;2022-12-18T06:09:55;-3.70;99.90
43946;DHT22;29599;51.196;4.428;2022-12-18T06:12:21;-3.70;99.90
43946;DHT22;29599;51.196;4.428;2022-12-18T06:14:46;-3.80;99.90
43946;DHT22;29599;51.196;4.428;2022-12-18T06:17:12;-3.80;99.90
43946;DHT22;29599;51.196;4.428;2022-12-18T06:19:37;-3.70;99.90
43946;DHT22;29599;51.196;4.428;2022-12-18T06:22:03;-3.80;99.90
43946;DHT22;29599;51.196;4.428;2022-12-18T06:24:29;-3.80;99.90
43946;DHT22;29599;51.196;4.428;2022-12-18T06:26:55;-3.70;99.90
43946;DHT22;29599;51.196;4.428;2022-12-18T06:29:21;-3.80;99.90
43946;DHT22;29599;51.196;4.428;2022-12-18T06:31:46;-3.80;99.90
43946;DHT22;29599;51.196;4.428;2022-12-18T06:34:12;-3.80;99.90
43946;DHT22;29599;51.196;4.428;2022-12-18T06:36:37;-3.80;99.90
43946;DHT22;29599;51.196;4.428;2022-12-18T06:39:03;-3.80;99.90
43946;DHT22;29599;51.196;4.428;2022-12-18T06:41:29;-3.80;99.90
43946;DHT22;29599;51.196;4.428;2022-12-18T06:43:54;-3.80;99.90
43946;DHT22;29599;51.196;4.428;2022-12-18T06:46:20;-3.90;99.90
43946;DHT22;29599;51.196;4.428;2022-12-18T06:48:49;-3.80;99.90
43946;DHT22;29599;51.196;4.428;2022-12-18T06:51:23;-3.80;99.90
43946;DHT22;29599;51.196;4.428;2022-12-18T06:53:49;-3.80;99.90
43946;DHT22;29599;51.196;4.428;2022-12-18T06:56:15;-3.90;99.90
43946;DHT22;29599;51.196;4.428;2022-12-18T06:58:40;-3.90;99.90
43946;DHT22;29599;51.196;4.428;2022-12-18T07:01:10;-4.00;99.90
43946;DHT22;29599;51.196;4.428;2022-12-18T07:03:37;-3.90;99.90
43946;DHT22;29599;51.196;4.428;2022-12-18T07:06:03;-3.90;99.90
43946;DHT22;29599;51.196;4.428;2022-12-18T07:08:30;-3.90;99.90
43946;DHT22;29599;51.196;4.428;2022-12-18T07:10:56;-3.90;99.90
43946;DHT22;29599;51.196;4.428;2022-12-18T07:13:22;-3.80;99.90
43946;DHT22;29599;51.196;4.428;2022-12-18T07:15:47;-3.80;99.90
43946;DHT22;29599;51.196;4.428;2022-12-18T07:18:13;-3.80;99.90
43946;DHT22;29599;51.196;4.428;2022-12-18T07:20:39;-3.90;99.90
43946;DHT22;29599;51.196;4.428;2022-12-18T07:23:05;-3.90;99.90
43946;DHT22;29599;51.196;4.428;2022-12-18T07:25:34;-3.80;99.90
43946;DHT22;29599;51.196;4.428;2022-12-18T07:28:00;-3.80;99.90
43946;DHT22;29599;51.196;4.428;2022-12-18T07:30:26;-3.90;99.90
43946;DHT22;29599;51.196;4.428;2022-12-18T07:32:51;-4.00;99.90
43946;DHT22;29599;51.196;4.428;2022-12-18T07:35:17;-4.00;99.90
43946;DHT22;29599;51.196;4.428;2022-12-18T07:37:42;-4.10;99.90
43946;DHT22;29599;51.196;4.428;2022-12-18T07:40:08;-4.10;99.90
43946;DHT22;29599;51.196;4.428;2022-12-18T07:42:34;-4.10;99.90
43946;DHT22;29599;51.196;4.428;2022-12-18T07:45:01;-4.10;99.90
43946;DHT22;29599;51.196;4.428;2022-12-18T07:47:28;-4.00;99.90
43946;DHT22;29599;51.196;4.428;2022-12-18T07:49:54;-3.90;99.90
43946;DHT22;29599;51.196;4.428;2022-12-18T07:52:20;-3.90;99.90
43946;DHT22;29599;51.196;4.428;2022-12-18T07:54:46;-4.00;99.90
43946;DHT22;29599;51.196;4.428;2022-12-18T07:57:14;-4.00;99.90
43946;DHT22;29599;51.196;4.428;2022-12-18T07:59:39;-4.00;99.90
43946;DHT22;29599;51.196;4.428;2022-12-18T08:02:05;-3.90;99.90
43946;DHT22;29599;51.196;4.428;2022-12-18T08:04:31;-3.80;99.90
43946;DHT22;29599;51.196;4.428;2022-12-18T08:06:56;-3.90;99.90
43946;DHT22;29599;51.196;4.428;2022-12-18T08:09:22;-4.00;99.90
43946;DHT22;29599;51.196;4.428;2022-12-18T08:11:48;-4.00;99.90
43946;DHT22;29599;51.196;4.428;2022-12-18T08:14:13;-4.00;99.90
43946;DHT22;29599;51.196;4.428;2022-12-18T08:16:40;-4.00;99.90
43946;DHT22;29599;51.196;4.428;2022-12-18T08:19:05;-4.00;99.90
43946;DHT22;29599;51.196;4.428;2022-12-18T08:21:31;-3.90;99.90
43946;DHT22;29599;51.196;4.428;2022-12-18T08:24:01;-3.80;99.90
43946;DHT22;29599;51.196;4.428;2022-12-18T08:26:29;-3.70;99.90
43946;DHT22;29599;51.196;4.428;2022-12-18T08:28:57;-3.70;99.90
43946;DHT22;29599;51.196;4.428;2022-12-18T08:31:24;-3.70;99.90
43946;DHT22;29599;51.196;4.428;2022-12-18T08:33:52;-3.60;99.90
43946;DHT22;29599;51.196;4.428;2022-12-18T08:36:19;-3.60;99.90
43946;DHT22;29599;51.196;4.428;2022-12-18T08:38:45;-3.50;99.90
43946;DHT22;29599;51.196;4.428;2022-12-18T08:41:12;-3.40;99.90
43946;DHT22;29599;51.196;4.428;2022-12-18T08:43:39;-3.40;99.90
43946;DHT22;29599;51.196;4.428;2022-12-18T08:46:25;-3.40;99.90
43946;DHT22;29599;51.196;4.428;2022-12-18T08:48:51;-3.40;99.90
43946;DHT22;29599;51.196;4.428;2022-12-18T08:51:18;-3.40;99.90
43946;DHT22;29599;51.196;4.428;2022-12-18T08:53:44;-3.40;99.90
43946;DHT22;29599;51.196;4.428;2022-12-18T08:56:10;-3.40;99.90
43946;DHT22;29599;51.196;4.428;2022-12-18T08:58:36;-3.50;99.90
43946;DHT22;29599;51.196;4.428;2022-12-18T09:01:07;-3.40;99.90
43946;DHT22;29599;51.196;4.428;2022-12-18T09:03:34;-3.30;99.90
43946;DHT22;29599;51.196;4.428;2022-12-18T09:06:00;-3.30;99.90
43946;DHT22;29599;51.196;4.428;2022-12-18T09:08:27;-3.20;99.90
43946;DHT22;29599;51.196;4.428;2022-12-18T09:10:52;-3.10;99.90
43946;DHT22;29599;51.196;4.428;2022-12-18T09:13:18;-3.20;99.90
43946;DHT22;29599;51.196;4.428;2022-12-18T09:15:49;-3.10;99.90
43946;DHT22;29599;51.196;4.428;2022-12-18T09:18:17;-3.10;99.90
43946;DHT22;29599;51.196;4.428;2022-12-18T09:20:43;-3.10;99.90
43946;DHT22;29599;51.196;4.428;2022-12-18T09:23:09;-3.00;99.90
43946;DHT22;29599;51.196;4.428;2022-12-18T09:25:36;-3.00;99.90
43946;DHT22;29599;51.196;4.428;2022-12-18T09:28:03;-2.90;99.90
43946;DHT22;29599;51.196;4.428;2022-12-18T09:30:29;-2.90;99.90
43946;DHT22;29599;51.196;4.428;2022-12-18T09:32:55;-2.90;99.90
43946;DHT22;29599;51.196;4.428;2022-12-18T09:35:21;-3.00;99.90
43946;DHT22;29599;51.196;4.428;2022-12-18T09:37:47;-3.00;99.90
43946;DHT22;29599;51.196;4.428;2022-12-18T09:40:14;-3.00;99.90
43946;DHT22;29599;51.196;4.428;2022-12-18T09:42:45;-3.00;99.90
43946;DHT22;29599;51.196;4.428;2022-12-18T09:45:15;-3.00;99.90
43946;DHT22;29599;51.196;4.428;2022-12-18T09:47:43;-2.90;99.90
43946;DHT22;29599;51.196;4.428;2022-12-18T09:52:50;-2.60;99.90
43946;DHT22;29599;51.196;4.428;2022-12-18T09:55:34;-2.50;99.90
43946;DHT22;29599;51.196;4.428;2022-12-18T10:00:52;-2.50;99.90
43946;DHT22;29599;51.196;4.428;2022-12-18T10:03:18;-2.40;99.90
43946;DHT22;29599;51.196;4.428;2022-12-18T10:06:11;-2.30;99.90
43946;DHT22;29599;51.196;4.428;2022-12-18T10:08:49;-2.20;99.90
43946;DHT22;29599;51.196;4.428;2022-12-18T10:11:41;-2.20;99.90
43946;DHT22;29599;51.196;4.428;2022-12-18T10:19:35;-2.10;99.90
43946;DHT22;29599;51.196;4.428;2022-12-18T10:24:47;-2.10;99.90
43946;DHT22;29599;51.196;4.428;2022-12-18T10:27:18;-2.00;99.90
43946;DHT22;29599;51.196;4.428;2022-12-18T10:29:46;-2.00;99.90
43946;DHT22;29599;51.196;4.428;2022-12-18T10:32:24;-2.00;99.90
43946;DHT22;29599;51.196;4.428;2022-12-18T10:34:52;-2.10;99.90
43946;DHT22;29599;51.196;4.428;2022-12-18T10:37:20;-2.00;99.90
43946;DHT22;29599;51.196;4.428;2022-12-18T10:40:09;-2.00;99.90
43946;DHT22;29599;51.196;4.428;2022-12-18T10:42:35;-2.00;99.90
43946;DHT22;29599;51.196;4.428;2022-12-18T10:45:11;-1.90;99.90
43946;DHT22;29599;51.196;4.428;2022-12-18T10:47:42;-1.90;99.90
43946;DHT22;29599;51.196;4.428;2022-12-18T10:50:29;-2.00;99.90
43946;DHT22;29599;51.196;4.428;2022-12-18T10:53:00;-1.90;99.90
43946;DHT22;29599;51.196;4.428;2022-12-18T10:55:39;-2.00;99.90
43946;DHT22;29599;51.196;4.428;2022-12-18T10:58:31;-2.00;99.90
43946;DHT22;29599;51.196;4.428;2022-12-18T11:01:16;-1.90;99.90
43946;DHT22;29599;51.196;4.428;2022-12-18T11:06:22;-1.80;99.90
43946;DHT22;29599;51.196;4.428;2022-12-18T11:09:32;-1.80;99.90
43946;DHT22;29599;51.196;4.428;2022-12-18T11:11:55;-1.80;99.90
43946;DHT22;29599;51.196;4.428;2022-12-18T11:14:31;-1.70;99.90
43946;DHT22;29599;51.196;4.428;2022-12-18T11:16:58;-1.60;99.90
43946;DHT22;29599;51.196;4.428;2022-12-18T11:21:57;-1.50;99.90
43946;DHT22;29599;51.196;4.428;2022-12-18T11:24:36;-1.50;99.90
43946;DHT22;29599;51.196;4.428;2022-12-18T11:27:04;-1.50;99.90
43946;DHT22;29599;51.196;4.428;2022-12-18T11:29:37;-1.40;99.90
43946;DHT22;29599;51.196;4.428;2022-12-18T11:34:46;-1.50;99.90
43946;DHT22;29599;51.196;4.428;2022-12-18T11:37:15;-1.50;99.90
43946;DHT22;29599;51.196;4.428;2022-12-18T11:39:56;-1.50;99.90
43946;DHT22;29599;51.196;4.428;2022-12-18T11:42:44;-1.40;99.90
43946;DHT22;29599;51.196;4.428;2022-12-18T11:50:17;-1.20;99.90
43946;DHT22;29599;51.196;4.428;2022-12-18T11:52:43;-1.30;99.90
43946;DHT22;29599;51.196;4.428;2022-12-18T11:58:37;-1.20;99.90
43946;DHT22;29599;51.196;4.428;2022-12-18T12:23:38;-1.00;99.90
43946;DHT22;29599;51.196;4.428;2022-12-18T12:28:42;-1.00;99.90
43946;DHT22;29599;51.196;4.428;2022-12-18T12:36:57;-0.90;99.90
43946;DHT22;29599;51.196;4.428;2022-12-18T12:39:34;-0.90;99.90
43946;DHT22;29599;51.196;4.428;2022-12-18T12:42:02;-0.90;99.90
43946;DHT22;29599;51.196;4.428;2022-12-18T12:44:51;-0.90;99.90
43946;DHT22;29599;51.196;4.428;2022-12-18T12:47:27;-0.80;99.90
43946;DHT22;29599;51.196;4.428;2022-12-18T12:49:54;-0.80;99.90
43946;DHT22;29599;51.196;4.428;2022-12-18T12:52:31;-0.80;99.90
43946;DHT22;29599;51.196;4.428;2022-12-18T12:54:59;-0.80;99.90
43946;DHT22;29599;51.196;4.428;2022-12-18T12:57:40;-0.80;99.90
43946;DHT22;29599;51.196;4.428;2022-12-18T13:00:15;-0.80;99.90
43946;DHT22;29599;51.196;4.428;2022-12-18T13:05:30;-0.80;99.90
43946;DHT22;29599;51.196;4.428;2022-12-18T13:08:05;-0.70;99.90
43946;DHT22;29599;51.196;4.428;2022-12-18T13:10:37;-0.70;99.90
43946;DHT22;29599;51.196;4.428;2022-12-18T13:18:33;-0.60;99.90
43946;DHT22;29599;51.196;4.428;2022-12-18T13:34:24;-0.60;99.90
43946;DHT22;29599;51.196;4.428;2022-12-18T13:36:51;-0.60;99.90
43946;DHT22;29599;51.196;4.428;2022-12-18T13:39:21;-0.50;99.90
43946;DHT22;29599;51.196;4.428;2022-12-18T13:41:49;-0.50;99.90
43946;DHT22;29599;51.196;4.428;2022-12-18T13:46:51;-0.50;99.90
43946;DHT22;29599;51.196;4.428;2022-12-18T13:49:25;-0.40;99.90
43946;DHT22;29599;51.196;4.428;2022-12-18T13:51:54;-0.40;99.90
43946;DHT22;29599;51.196;4.428;2022-12-18T13:56:52;-0.40;99.90
43946;DHT22;29599;51.196;4.428;2022-12-18T13:59:26;-0.40;99.90
43946;DHT22;29599;51.196;4.428;2022-12-18T14:04:27;-0.30;99.90
43946;DHT22;29599;51.196;4.428;2022-12-18T14:06:56;-0.40;99.90
43946;DHT22;29599;51.196;4.428;2022-12-18T14:09:46;-0.30;99.90
43946;DHT22;29599;51.196;4.428;2022-12-18T14:12:25;-0.30;99.90
43946;DHT22;29599;51.196;4.428;2022-12-18T14:18:15;-0.30;99.90
43946;DHT22;29599;51.196;4.428;2022-12-18T14:20:44;-0.30;99.90
43946;DHT22;29599;51.196;4.428;2022-12-18T14:25:58;-0.30;99.90
43946;DHT22;29599;51.196;4.428;2022-12-18T14:28:24;-0.30;99.90
43946;DHT22;29599;51.196;4.428;2022-12-18T14:30:51;-0.30;99.90
43946;DHT22;29599;51.196;4.428;2022-12-18T14:33:20;-0.30;99.90
43946;DHT22;29599;51.196;4.428;2022-12-18T14:35:58;-0.30;99.90
43946;DHT22;29599;51.196;4.428;2022-12-18T14:38:35;-0.20;99.90
43946;DHT22;29599;51.196;4.428;2022-12-18T14:43:39;-0.30;99.90
43946;DHT22;29599;51.196;4.428;2022-12-18T14:46:24;-0.30;99.90
43946;DHT22;29599;51.196;4.428;2022-12-18T14:48:51;-0.30;99.90
43946;DHT22;29599;51.196;4.428;2022-12-18T14:51:21;-0.20;99.90
43946;DHT22;29599;51.196;4.428;2022-12-18T14:53:54;-0.20;99.90
43946;DHT22;29599;51.196;4.428;2022-12-18T14:56:26;-0.20;99.90
43946;DHT22;29599;51.196;4.428;2022-12-18T14:59:12;-0.20;99.90
43946;DHT22;29599;51.196;4.428;2022-12-18T15:04:32;-0.20;99.90
43946;DHT22;29599;51.196;4.428;2022-12-18T15:07:20;-0.20;99.90
43946;DHT22;29599;51.196;4.428;2022-12-18T15:10:10;-0.10;99.90
43946;DHT22;29599;51.196;4.428;2022-12-18T15:12:44;-0.10;99.90
43946;DHT22;29599;51.196;4.428;2022-12-18T15:18:04;-0.20;99.90
43946;DHT22;29599;51.196;4.428;2022-12-18T15:20:38;-0.10;99.90
43946;DHT22;29599;51.196;4.428;2022-12-18T15:23:12;-0.10;99.90
43946;DHT22;29599;51.196;4.428;2022-12-18T15:25:38;-0.10;99.90
43946;DHT22;29599;51.196;4.428;2022-12-18T15:28:14;-0.10;99.90
43946;DHT22;29599;51.196;4.428;2022-12-18T15:31:05;0.00;99.90
43946;DHT22;29599;51.196;4.428;2022-12-18T15:33:36;-0.10;99.90
43946;DHT22;29599;51.196;4.428;2022-12-18T15:36:23;0.00;99.90
43946;DHT22;29599;51.196;4.428;2022-12-18T15:38:50;0.00;99.90
43946;DHT22;29599;51.196;4.428;2022-12-18T15:41:21;0.00;99.90
43946;DHT22;29599;51.196;4.428;2022-12-18T15:43:48;0.00;99.90
43946;DHT22;29599;51.196;4.428;2022-12-18T15:46:20;0.00;99.90
43946;DHT22;29599;51.196;4.428;2022-12-18T15:48:51;0.10;99.90
43946;DHT22;29599;51.196;4.428;2022-12-18T15:51:19;0.00;99.90
43946;DHT22;29599;51.196;4.428;2022-12-18T15:53:46;0.10;99.90
43946;DHT22;29599;51.196;4.428;2022-12-18T15:56:13;0.10;99.90
43946;DHT22;29599;51.196;4.428;2022-12-18T15:58:58;0.10;99.90
43946;DHT22;29599;51.196;4.428;2022-12-18T16:01:28;0.10;99.90
43946;DHT22;29599;51.196;4.428;2022-12-18T16:03:54;0.20;99.90
43946;DHT22;29599;51.196;4.428;2022-12-18T16:06:21;0.20;99.90
43946;DHT22;29599;51.196;4.428;2022-12-18T16:08:47;0.20;99.90
43946;DHT22;29599;51.196;4.428;2022-12-18T16:11:30;0.20;99.90
43946;DHT22;29599;51.196;4.428;2022-12-18T16:14:19;0.20;99.90
43946;DHT22;29599;51.196;4.428;2022-12-18T16:16:47;0.20;99.90
43946;DHT22;29599;51.196;4.428;2022-12-18T16:19:13;0.20;99.90
43946;DHT22;29599;51.196;4.428;2022-12-18T16:21:39;0.30;99.90
43946;DHT22;29599;51.196;4.428;2022-12-18T16:24:04;0.30;99.90
43946;DHT22;29599;51.196;4.428;2022-12-18T16:26:30;0.30;99.90
43946;DHT22;29599;51.196;4.428;2022-12-18T16:28:56;0.30;99.90
43946;DHT22;29599;51.196;4.428;2022-12-18T16:31:21;0.30;99.90
43946;DHT22;29599;51.196;4.428;2022-12-18T16:33:47;0.30;99.90
43946;DHT22;29599;51.196;4.428;2022-12-18T16:36:12;0.30;99.90
43946;DHT22;29599;51.196;4.428;2022-12-18T16:38:38;0.30;99.90
43946;DHT22;29599;51.196;4.428;2022-12-18T16:41:17;0.40;99.90
43946;DHT22;29599;51.196;4.428;2022-12-18T16:43:59;0.30;99.90
43946;DHT22;29599;51.196;4.428;2022-12-18T16:46:25;0.40;99.90
43946;DHT22;29599;51.196;4.428;2022-12-18T16:48:51;0.40;99.90
43946;DHT22;29599;51.196;4.428;2022-12-18T16:51:17;0.40;99.90
43946;DHT22;29599;51.196;4.428;2022-12-18T16:53:42;0.40;99.90
43946;DHT22;29599;51.196;4.428;2022-12-18T16:56:08;0.40;99.90
43946;DHT22;29599;51.196;4.428;2022-12-18T16:58:33;0.40;99.90
43946;DHT22;29599;51.196;4.428;2022-12-18T17:00:59;0.40;99.90
43946;DHT22;29599;51.196;4.428;2022-12-18T17:03:25;0.40;99.90
43946;DHT22;29599;51.196;4.428;2022-12-18T17:05:51;0.40;99.90
43946;DHT22;29599;51.196;4.428;2022-12-18T17:08:16;0.50;99.90
43946;DHT22;29599;51.196;4.428;2022-12-18T17:10:42;0.40;99.90
43946;DHT22;29599;51.196;4.428;2022-12-18T17:13:08;0.50;99.90
43946;DHT22;29599;51.196;4.428;2022-12-18T17:15:34;0.50;99.90
43946;DHT22;29599;51.196;4.428;2022-12-18T17:18:01;0.50;99.90
43946;DHT22;29599;51.196;4.428;2022-12-18T17:20:27;0.50;99.90
43946;DHT22;29599;51.196;4.428;2022-12-18T17:22:52;0.50;99.90
43946;DHT22;29599;51.196;4.428;2022-12-18T17:25:18;0.50;99.90
43946;DHT22;29599;51.196;4.428;2022-12-18T17:27:43;0.50;99.90
43946;DHT22;29599;51.196;4.428;2022-12-18T17:30:09;0.60;99.90
43946;DHT22;29599;51.196;4.428;2022-12-18T17:32:35;0.60;99.90
43946;DHT22;29599;51.196;4.428;2022-12-18T17:35:01;0.60;99.90
43946;DHT22;29599;51.196;4.428;2022-12-18T17:37:27;0.60;99.90
43946;DHT22;29599;51.196;4.428;2022-12-18T17:39:52;0.60;99.90
43946;DHT22;29599;51.196;4.428;2022-12-18T17:42:18;0.60;99.90
43946;DHT22;29599;51.196;4.428;2022-12-18T17:44:44;0.60;99.90
43946;DHT22;29599;51.196;4.428;2022-12-18T17:47:10;0.60;99.90
43946;DHT22;29599;51.196;4.428;2022-12-18T17:49:37;0.60;99.90
43946;DHT22;29599;51.196;4.428;2022-12-18T17:52:03;0.60;99.90
43946;DHT22;29599;51.196;4.428;2022-12-18T17:54:29;0.60;99.90
43946;DHT22;29599;51.196;4.428;2022-12-18T17:56:54;0.70;99.90
43946;DHT22;29599;51.196;4.428;2022-12-18T17:59:20;0.60;99.90